Time;durP1;ratioP1;P1;durP2;ratioP2;P2;SDS_P1;SDS_P2;PMS_P1;PMS_P2;Temp;Humidity;BMP_temperature;BMP_pressure;BME280_temperature;BME280_humidity;BME280_pressure;Samples;Min_cycle;Max_cycle;Signal;HPM_P1;HPM_P2
2023/09/10 07:44:49;;;;;;;1.48;1.38;;;;;;;;;;6934041;19;52168;-92
2023/09/10 07:47:16;;;;;;;1.33;1.23;;;;;;;;;;7408479;19;20357;-93
2023/09/10 07:49:42;;;;;;;1.10;1.10;;;;;;;;;;7416368;19;20375;-92
2023/09/10 07:52:09;;;;;;;1.20;1.20;;;;;;;;;;7416738;19;20365;-92
2023/09/10 07:54:36;;;;;;;1.10;1.10;;;;;;;;;;7413088;19;20374;-92
2023/09/10 07:57:03;;;;;;;1.55;1.45;;;;;;;;;;7410794;19;20435;-92
2023/09/10 07:59:30;;;;;;;1.60;1.50;;;;;;;;;;7399432;19;20348;-93
2023/09/10 08:01:57;;;;;;;2.03;1.83;;;;;;;;;;7406874;19;20372;-94
2023/09/10 08:04:24;;;;;;;1.60;1.50;;;;;;;;;;7399180;19;20360;-94
2023/09/10 08:06:50;;;;;;;1.03;1.03;;;;;;;;;;7401164;19;20367;-92
2023/09/10 08:09:17;;;;;;;1.55;1.45;;;;;;;;;;7400012;19;20615;-94
2023/09/10 08:11:44;;;;;;;2.60;1.50;;;;;;;;;;7388455;19;20437;-93
2023/09/10 08:14:12;;;;;;;1.15;1.15;;;;;;;;;;7389437;19;20352;-94
2023/09/10 08:16:38;;;;;;;0.80;0.80;;;;;;;;;;7384379;19;20372;-93
2023/09/10 08:19:05;;;;;;;1.10;1.10;;;;;;;;;;7383005;19;20357;-92
2023/09/10 08:21:32;;;;;;;1.25;1.25;;;;;;;;;;7393167;19;20735;-93
2023/09/10 08:23:59;;;;;;;2.80;1.75;;;;;;;;;;7400987;19;20352;-94
2023/09/10 08:26:26;;;;;;;1.42;1.33;;;;;;;;;;7394947;19;20387;-92
2023/09/10 08:28:54;;;;;;;1.35;1.25;;;;;;;;;;7395182;19;20715;-93
2023/09/10 08:31:20;;;;;;;1.70;0.90;;;;;;;;;;7408339;19;20928;-93
2023/09/10 08:33:47;;;;;;;1.50;1.40;;;;;;;;;;7391179;19;20352;-93
2023/09/10 08:36:14;;;;;;;1.63;1.52;;;;;;;;;;7398427;19;20356;-93
2023/09/10 08:38:42;;;;;;;5.03;1.73;;;;;;;;;;7399390;19;20356;-94
2023/09/10 08:41:20;;;;;;;2.80;1.30;;;;;;;;;;7405901;19;20145;-93
2023/09/10 08:43:50;;;;;;;0.60;0.60;;;;;;;;;;7403090;19;20141;-93
2023/09/10 08:46:21;;;;;;;0.47;0.47;;;;;;;;;;7400083;19;20517;-94
2023/09/10 08:48:50;;;;;;;0.40;0.40;;;;;;;;;;7410442;19;20140;-94
2023/09/10 08:51:17;;;;;;;0.40;0.40;;;;;;;;;;7404186;19;20170;-94
2023/09/10 08:53:45;;;;;;;0.40;0.40;;;;;;;;;;7412812;19;20129;-94
2023/09/10 08:56:12;;;;;;;0.60;0.60;;;;;;;;;;7412664;19;20121;-93
2023/09/10 08:58:40;;;;;;;0.75;0.75;;;;;;;;;;7413151;19;20168;-93
2023/09/10 09:01:11;;;;;;;0.50;0.50;;;;;;;;;;7414920;19;20161;-93
2023/09/10 09:03:38;;;;;;;0.93;0.93;;;;;;;;;;7417367;19;20136;-94
2023/09/10 09:06:05;;;;;;;0.98;0.93;;;;;;;;;;7417404;19;20162;-95
2023/09/10 09:08:34;;;;;;;0.30;0.30;;;;;;;;;;7418119;19;20150;-94
2023/09/10 09:11:07;;;;;;;0.50;0.50;;;;;;;;;;7414242;19;20140;-94
2023/09/10 09:13:37;;;;;;;0.47;0.47;;;;;;;;;;7412145;19;20471;-93
2023/09/10 09:16:05;;;;;;;1.23;1.13;;;;;;;;;;7414238;19;20168;-95
2023/09/10 09:18:35;;;;;;;0.50;0.50;;;;;;;;;;7410505;19;20137;-93
2023/09/10 09:21:07;;;;;;;1.20;1.10;;;;;;;;;;7413645;19;20146;-93
2023/09/10 09:23:51;;;;;;;0.60;0.60;;;;;;;;;;7413316;19;20164;-96
2023/09/10 09:26:18;;;;;;;0.47;0.47;;;;;;;;;;7419494;19;20144;-94
2023/09/10 09:28:45;;;;;;;1.10;1.10;;;;;;;;;;7418574;19;20136;-92
2023/09/10 09:31:12;;;;;;;0.60;0.60;;;;;;;;;;7417867;19;20149;-94
2023/09/10 09:33:40;;;;;;;0.90;0.90;;;;;;;;;;7418485;19;20145;-94
2023/09/10 09:36:08;;;;;;;2.05;1.85;;;;;;;;;;7418232;19;20439;-95
2023/09/10 09:38:41;;;;;;;1.10;1.10;;;;;;;;;;7416683;19;20381;-94
2023/09/10 09:41:08;;;;;;;2.00;1.40;;;;;;;;;;7414801;19;20763;-92
2023/09/10 09:43:38;;;;;;;1.83;1.67;;;;;;;;;;7419525;19;20369;-95
2023/09/10 09:46:06;;;;;;;1.00;1.00;;;;;;;;;;7419454;19;20364;-95
2023/09/10 09:48:33;;;;;;;1.30;1.30;;;;;;;;;;7415995;19;20360;-96
2023/09/10 09:51:04;;;;;;;1.73;1.63;;;;;;;;;;7409330;19;20388;-93
2023/09/10 09:53:32;;;;;;;2.23;1.83;;;;;;;;;;7411481;19;20357;-96
2023/09/10 09:56:05;;;;;;;2.17;1.13;;;;;;;;;;7419740;19;20350;-96
2023/09/10 09:58:37;;;;;;;1.45;1.40;;;;;;;;;;7419979;19;20377;-96
2023/09/10 10:01:05;;;;;;;1.08;1.08;;;;;;;;;;7414788;19;20359;-96
2023/09/10 10:03:33;;;;;;;1.27;1.17;;;;;;;;;;7411639;19;20352;-96
2023/09/10 10:06:01;;;;;;;0.90;0.90;;;;;;;;;;7411996;19;20431;-96
2023/09/10 10:08:34;;;;;;;1.02;1.02;;;;;;;;;;7416967;19;20368;-96
2023/09/10 10:11:01;;;;;;;0.82;0.82;;;;;;;;;;7415478;19;20364;-95
2023/09/10 10:13:28;;;;;;;1.48;1.38;;;;;;;;;;7379713;19;20372;-87
2023/09/10 10:15:58;;;;;;;0.90;0.90;;;;;;;;;;7384497;19;20345;-87
2023/09/10 10:18:31;;;;;;;2.08;1.98;;;;;;;;;;7389839;19;20149;-87
2023/09/10 10:20:58;;;;;;;1.27;1.17;;;;;;;;;;7387700;19;20136;-87
2023/09/10 10:23:25;;;;;;;2.60;1.45;;;;;;;;;;7387008;19;20145;-86
2023/09/10 10:25:53;;;;;;;1.35;1.30;;;;;;;;;;7389968;19;20137;-87
2023/09/10 10:28:20;;;;;;;0.98;0.98;;;;;;;;;;7388741;19;20133;-86
2023/09/10 10:31:04;;;;;;;1.63;1.52;;;;;;;;;;7386718;19;20145;-86
2023/09/10 10:33:33;;;;;;;1.60;1.50;;;;;;;;;;7389542;19;20563;-87
2023/09/10 10:36:31;;;;;;;1.25;1.25;;;;;;;;;;7390647;19;20201;-87
2023/09/10 10:39:04;;;;;;;1.23;1.13;;;;;;;;;;7391101;19;20154;-87
2023/09/10 10:41:31;;;;;;;1.35;1.25;;;;;;;;;;7387486;19;20205;-87
2023/09/10 10:44:04;;;;;;;0.65;0.65;;;;;;;;;;7390753;19;20637;-87
2023/09/10 10:46:33;;;;;;;0.98;0.95;;;;;;;;;;7392330;19;20181;-88
2023/09/10 10:49:00;;;;;;;0.68;0.68;;;;;;;;;;7398307;19;20140;-87
2023/09/10 10:51:28;;;;;;;10.93;1.30;;;;;;;;;;7396065;19;20695;-88
2023/09/10 10:54:07;;;;;;;2.65;1.60;;;;;;;;;;7391677;19;20365;-88
2023/09/10 10:56:34;;;;;;;1.20;1.20;;;;;;;;;;7391818;19;20443;-87
2023/09/10 10:59:01;;;;;;;1.33;1.23;;;;;;;;;;7395522;19;20475;-88
2023/09/10 11:01:28;;;;;;;1.43;1.33;;;;;;;;;;7392514;19;20349;-87
2023/09/10 11:03:55;;;;;;;0.90;0.90;;;;;;;;;;7391051;19;20386;-88
2023/09/10 11:06:22;;;;;;;1.25;1.15;;;;;;;;;;7393951;19;20352;-88
2023/09/10 11:08:51;;;;;;;1.13;1.03;;;;;;;;;;7395569;19;20344;-87
2023/09/10 11:11:44;;;;;;;1.45;1.40;;;;;;;;;;7394170;19;20718;-86
2023/09/10 11:14:14;;;;;;;1.33;1.13;;;;;;;;;;7388149;19;21172;-87
2023/09/10 11:16:43;;;;;;;1.48;1.38;;;;;;;;;;7391365;19;20328;-86
2023/09/10 11:19:41;;;;;;;1.17;1.17;;;;;;;;;;7392548;19;20348;-86
2023/09/10 11:22:08;;;;;;;1.35;1.35;;;;;;;;;;7390418;19;20353;-88
2023/09/10 11:24:40;;;;;;;2.00;1.67;;;;;;;;;;7394310;19;20433;-87
2023/09/10 11:27:21;;;;;;;0.95;0.95;;;;;;;;;;7398800;19;20373;-87
2023/09/10 11:30:06;;;;;;;1.95;1.45;;;;;;;;;;7393740;19;20352;-87
2023/09/10 11:32:33;;;;;;;0.93;0.93;;;;;;;;;;7392085;19;20372;-87
2023/09/10 11:35:18;;;;;;;1.50;1.40;;;;;;;;;;7388636;19;20352;-86
2023/09/10 11:37:53;;;;;;;1.30;1.27;;;;;;;;;;7390365;19;20356;-87
2023/09/10 11:40:21;;;;;;;1.00;0.95;;;;;;;;;;7391421;19;20756;-87
2023/09/10 11:42:49;;;;;;;0.82;0.82;;;;;;;;;;7392315;19;20464;-88
2023/09/10 11:45:18;;;;;;;1.10;1.00;;;;;;;;;;7394615;19;20392;-87
2023/09/10 11:47:46;;;;;;;0.70;0.70;;;;;;;;;;7394774;19;20453;-89
2023/09/10 11:50:14;;;;;;;;;;;;;;;;;;7397345;19;20492;-87
2023/09/10 11:52:40;;;;;;;;;;;;;;;;;;7394103;19;19940;-88
2023/09/10 11:55:10;;;;;;;0.90;0.90;;;;;;;;;;7395062;19;20296;-88
2023/09/10 11:57:38;;;;;;;1.95;1.17;;;;;;;;;;7394492;19;20148;-87
2023/09/10 12:00:06;;;;;;;1.08;1.08;;;;;;;;;;7394426;19;20891;-87
2023/09/10 12:02:33;;;;;;;1.45;1.35;;;;;;;;;;7393627;19;20370;-87
2023/09/10 12:05:00;;;;;;;1.33;1.25;;;;;;;;;;7392924;19;20682;-87
2023/09/10 12:07:26;;;;;;;0.90;0.90;;;;;;;;;;7393575;19;20390;-87
2023/09/10 12:09:53;;;;;;;1.10;1.00;;;;;;;;;;7391333;19;20416;-87
2023/09/10 12:12:25;;;;;;;0.70;0.70;;;;;;;;;;7393144;19;20349;-88
2023/09/10 12:14:52;;;;;;;1.17;1.17;;;;;;;;;;7392823;19;20369;-88
2023/09/10 12:17:19;;;;;;;1.40;0.97;;;;;;;;;;7392829;19;20357;-87
2023/09/10 12:19:47;;;;;;;0.85;0.85;;;;;;;;;;7391314;19;20348;-87
2023/09/10 12:22:18;;;;;;;1.80;1.00;;;;;;;;;;7394166;19;20356;-87
2023/09/10 12:24:45;;;;;;;0.97;0.97;;;;;;;;;;7388705;19;20356;-88
2023/09/10 12:27:13;;;;;;;0.88;0.88;;;;;;;;;;7392824;19;20704;-88
2023/09/10 12:29:40;;;;;;;0.77;0.77;;;;;;;;;;7393313;19;20343;-88
2023/09/10 12:32:07;;;;;;;0.93;0.93;;;;;;;;;;7393773;19;21067;-87
2023/09/10 12:34:34;;;;;;;0.98;0.98;;;;;;;;;;7391296;19;20369;-87
2023/09/10 12:37:03;;;;;;;0.90;0.90;;;;;;;;;;7388458;19;21293;-88
2023/09/10 12:39:33;;;;;;;1.40;1.30;;;;;;;;;;7394833;19;20368;-87
2023/09/10 12:42:03;;;;;;;1.67;1.15;;;;;;;;;;7394785;19;20372;-88
2023/09/10 12:44:30;;;;;;;2.30;1.30;;;;;;;;;;7393891;19;20364;-88
2023/09/10 12:46:58;;;;;;;0.70;0.70;;;;;;;;;;7399580;19;20593;-88
2023/09/10 12:49:30;;;;;;;0.88;0.88;;;;;;;;;;7400875;19;20195;-88
2023/09/10 12:52:01;;;;;;;0.60;0.60;;;;;;;;;;7396621;19;20144;-88
2023/09/10 12:54:28;;;;;;;0.52;0.52;;;;;;;;;;7393070;19;20669;-88
2023/09/10 12:56:55;;;;;;;2.25;2.05;;;;;;;;;;7392633;19;20154;-87
2023/09/10 12:59:25;;;;;;;0.70;0.70;;;;;;;;;;7400606;19;20140;-89
2023/09/10 13:01:52;;;;;;;1.10;1.10;;;;;;;;;;7425161;19;20121;-88
2023/09/10 13:04:18;;;;;;;0.40;0.40;;;;;;;;;;7424508;19;20152;-90
2023/09/10 13:06:51;;;;;;;0.80;0.80;;;;;;;;;;7426376;19;20136;-92
2023/09/10 13:09:21;;;;;;;2.58;1.00;;;;;;;;;;7422325;19;20136;-88
2023/09/10 13:11:49;;;;;;;2.22;1.20;;;;;;;;;;7406588;19;20152;-89
2023/09/10 13:14:20;;;;;;;0.60;0.60;;;;;;;;;;7393719;19;20139;-88
2023/09/10 13:16:50;;;;;;;0.73;0.73;;;;;;;;;;7390907;19;20224;-88
2023/09/10 13:19:16;;;;;;;0.77;0.77;;;;;;;;;;7391031;19;20563;-88
2023/09/10 13:21:48;;;;;;;1.63;1.00;;;;;;;;;;7394931;19;20601;-90
2023/09/10 13:24:15;;;;;;;1.00;1.00;;;;;;;;;;7389965;19;20164;-89
2023/09/10 13:26:41;;;;;;;0.63;0.63;;;;;;;;;;7392802;19;20476;-88
2023/09/10 13:29:09;;;;;;;1.67;1.58;;;;;;;;;;7389561;19;20140;-88
2023/09/10 13:31:36;;;;;;;0.60;0.60;;;;;;;;;;7389748;19;20129;-87
2023/09/10 13:34:05;;;;;;;0.70;0.70;;;;;;;;;;7388764;19;20187;-86
2023/09/10 13:36:32;;;;;;;0.80;0.80;;;;;;;;;;7388614;19;20212;-88
2023/09/10 13:38:58;;;;;;;1.02;1.02;;;;;;;;;;7390553;19;20136;-86
2023/09/10 13:41:25;;;;;;;1.05;1.00;;;;;;;;;;7391560;19;20137;-87
2023/09/10 13:43:52;;;;;;;0.70;0.70;;;;;;;;;;7390490;19;20161;-87
2023/09/10 13:46:18;;;;;;;1.50;1.40;;;;;;;;;;7387190;19;20357;-86
2023/09/10 13:48:45;;;;;;;1.02;1.02;;;;;;;;;;7386908;19;20777;-88
2023/09/10 13:51:13;;;;;;;1.25;1.25;;;;;;;;;;7388963;19;20339;-86
2023/09/10 13:53:42;;;;;;;0.80;0.80;;;;;;;;;;7387282;19;20336;-88
2023/09/10 13:56:10;;;;;;;0.70;0.70;;;;;;;;;;7386974;19;20368;-89
2023/09/10 13:58:38;;;;;;;1.15;1.10;;;;;;;;;;7390046;19;20369;-89
2023/09/10 14:01:07;;;;;;;1.27;1.17;;;;;;;;;;7391701;19;20365;-88
2023/09/10 14:03:34;;;;;;;0.73;0.73;;;;;;;;;;7390603;19;20339;-88
2023/09/10 14:06:03;;;;;;;1.80;0.80;;;;;;;;;;7388075;19;20444;-87
2023/09/10 14:08:30;;;;;;;0.90;0.90;;;;;;;;;;7395499;19;20355;-88
2023/09/10 14:10:57;;;;;;;1.67;1.08;;;;;;;;;;7393844;19;20441;-87
2023/09/10 14:14:13;;;;;;;1.25;1.20;;;;;;;;;;7387902;19;20362;-88
2023/09/10 14:17:21;;;;;;;0.80;0.80;;;;;;;;;;7386637;19;20379;-88
2023/09/10 14:21:10;;;;;;;1.20;1.17;;;;;;;;;;7387396;19;20356;-88
2023/09/10 14:23:56;;;;;;;1.00;1.00;;;;;;;;;;7386741;19;20344;-87
2023/09/10 14:26:45;;;;;;;0.70;0.70;;;;;;;;;;7388874;19;20371;-88
2023/09/10 14:29:24;;;;;;;0.90;0.90;;;;;;;;;;7386841;19;20353;-88
2023/09/10 14:32:05;;;;;;;0.63;0.63;;;;;;;;;;7388318;19;20352;-88
2023/09/10 14:34:50;;;;;;;1.60;1.10;;;;;;;;;;7387636;19;20356;-89
2023/09/10 14:37:21;;;;;;;0.77;0.77;;;;;;;;;;7386945;19;20845;-88
2023/09/10 14:39:48;;;;;;;0.50;0.50;;;;;;;;;;7388102;19;20403;-88
2023/09/10 14:42:14;;;;;;;0.93;0.93;;;;;;;;;;7388444;19;20435;-88
2023/09/10 14:45:00;;;;;;;0.95;0.95;;;;;;;;;;7386784;19;20360;-88
2023/09/10 14:47:44;;;;;;;1.42;1.02;;;;;;;;;;7387339;19;20373;-88
2023/09/10 14:53:38;;;;;;;1.00;1.00;;;;;;;;;;7393911;19;20345;-90
2023/09/10 14:56:22;;;;;;;0.70;0.70;;;;;;;;;;7389739;19;20915;-90
2023/09/10 14:58:56;;;;;;;0.85;0.85;;;;;;;;;;7387559;19;20369;-87
2023/09/10 15:01:30;;;;;;;1.40;0.77;;;;;;;;;;7388578;19;20352;-90
2023/09/10 15:04:02;;;;;;;0.77;0.77;;;;;;;;;;7386017;19;20347;-89
2023/09/10 15:06:32;;;;;;;0.65;0.65;;;;;;;;;;7387471;19;20340;-90
2023/09/10 15:09:12;;;;;;;0.80;0.80;;;;;;;;;;7387465;19;20360;-89
2023/09/10 15:11:41;;;;;;;0.68;0.68;;;;;;;;;;7384758;19;20359;-90
2023/09/10 15:14:18;;;;;;;0.90;0.90;;;;;;;;;;7384473;19;20356;-90
2023/09/10 15:16:45;;;;;;;0.88;0.88;;;;;;;;;;7384968;19;20348;-90
2023/09/10 15:19:17;;;;;;;0.60;0.60;;;;;;;;;;7385743;19;20353;-91
2023/09/10 15:21:55;;;;;;;0.80;0.80;;;;;;;;;;7384026;19;20344;-89
2023/09/10 15:24:56;;;;;;;0.80;0.80;;;;;;;;;;7384773;19;20377;-89
2023/09/10 15:27:46;;;;;;;1.10;0.80;;;;;;;;;;7382707;19;20363;-90
2023/09/10 15:30:28;;;;;;;0.75;0.65;;;;;;;;;;7392568;19;20352;-90
2023/09/10 15:33:12;;;;;;;0.50;0.50;;;;;;;;;;7392102;19;20782;-90
2023/09/10 15:36:20;;;;;;;0.70;0.70;;;;;;;;;;7392455;19;20415;-89
2023/09/10 15:38:47;;;;;;;1.02;0.98;;;;;;;;;;7392718;19;20364;-90
2023/09/10 15:41:14;;;;;;;0.90;0.90;;;;;;;;;;7398445;19;20345;-89
2023/09/10 15:43:40;;;;;;;0.70;0.70;;;;;;;;;;7396642;19;20361;-90
2023/09/10 15:46:08;;;;;;;0.90;0.90;;;;;;;;;;7393546;19;20357;-90
2023/09/10 15:48:35;;;;;;;0.70;0.70;;;;;;;;;;7398650;19;20380;-90
2023/09/10 15:51:05;;;;;;;0.52;0.52;;;;;;;;;;7396787;19;20352;-89
2023/09/10 15:53:32;;;;;;;0.98;0.98;;;;;;;;;;7398097;19;20908;-90
2023/09/10 15:55:59;;;;;;;0.68;0.68;;;;;;;;;;7394024;19;20381;-89
2023/09/10 15:58:25;;;;;;;0.60;0.60;;;;;;;;;;7393126;19;20749;-89
2023/09/10 16:00:52;;;;;;;0.52;0.52;;;;;;;;;;7396308;19;20474;-89
2023/09/10 16:03:21;;;;;;;0.65;0.65;;;;;;;;;;7393961;19;20216;-89
2023/09/10 16:05:48;;;;;;;0.80;0.80;;;;;;;;;;7389281;19;20341;-89
2023/09/10 16:08:14;;;;;;;0.80;0.80;;;;;;;;;;7389467;19;20371;-90
2023/09/10 16:10:42;;;;;;;0.85;0.85;;;;;;;;;;7390260;19;20381;-89
2023/09/10 16:13:08;;;;;;;0.75;0.75;;;;;;;;;;7390888;19;20426;-89
2023/09/10 16:15:36;;;;;;;0.60;0.60;;;;;;;;;;7392394;19;20408;-89
2023/09/10 16:18:03;;;;;;;0.95;0.95;;;;;;;;;;7391352;19;20356;-90
2023/09/10 16:20:30;;;;;;;0.88;0.80;;;;;;;;;;7388633;19;20773;-89
2023/09/10 16:22:57;;;;;;;1.00;0.68;;;;;;;;;;7390656;19;20890;-90
2023/09/10 16:25:23;;;;;;;0.77;0.77;;;;;;;;;;7390072;19;20423;-89
2023/09/10 16:27:50;;;;;;;0.60;0.60;;;;;;;;;;7389888;19;20871;-90
2023/09/10 16:30:17;;;;;;;0.80;0.80;;;;;;;;;;7385906;19;20904;-90
2023/09/10 16:32:45;;;;;;;0.60;0.60;;;;;;;;;;7389149;19;20347;-89
2023/09/10 16:35:11;;;;;;;0.75;0.75;;;;;;;;;;7390095;19;20384;-89
2023/09/10 16:37:39;;;;;;;0.70;0.70;;;;;;;;;;7385510;19;20702;-89
2023/09/10 16:40:06;;;;;;;0.98;0.98;;;;;;;;;;7387969;19;20360;-89
2023/09/10 16:42:33;;;;;;;0.80;0.80;;;;;;;;;;7397203;19;20404;-89
2023/09/10 16:45:00;;;;;;;0.60;0.60;;;;;;;;;;7391046;19;20766;-89
2023/09/10 16:47:27;;;;;;;0.70;0.70;;;;;;;;;;7390290;19;20367;-89
2023/09/10 16:49:53;;;;;;;0.75;0.75;;;;;;;;;;7392386;19;20456;-89
2023/09/10 16:52:20;;;;;;;1.02;1.00;;;;;;;;;;7391278;19;20360;-90
2023/09/10 16:54:47;;;;;;;0.85;0.85;;;;;;;;;;7388500;19;20419;-89
2023/09/10 16:57:14;;;;;;;0.73;0.73;;;;;;;;;;7386868;19;20362;-90
2023/09/10 16:59:47;;;;;;;0.85;0.85;;;;;;;;;;7393460;19;20353;-90
2023/09/10 17:02:14;;;;;;;1.40;1.33;;;;;;;;;;7391666;19;20352;-90
2023/09/10 17:04:41;;;;;;;1.20;1.20;;;;;;;;;;7394330;19;20352;-89
2023/09/10 17:07:08;;;;;;;1.75;1.40;;;;;;;;;;7392177;19;20754;-90
2023/09/10 17:09:35;;;;;;;0.82;0.82;;;;;;;;;;7391249;19;20348;-90
2023/09/10 17:12:05;;;;;;;1.00;0.95;;;;;;;;;;7390815;19;20360;-90
2023/09/10 17:14:32;;;;;;;0.73;0.73;;;;;;;;;;7389336;19;21062;-90
2023/09/10 17:17:02;;;;;;;1.15;1.00;;;;;;;;;;7390303;19;20352;-90
2023/09/10 17:19:29;;;;;;;1.17;1.05;;;;;;;;;;7389536;19;20360;-89
2023/09/10 17:21:56;;;;;;;1.30;1.20;;;;;;;;;;7389004;19;20354;-90
2023/09/10 17:24:25;;;;;;;0.88;0.88;;;;;;;;;;7387814;19;20341;-89
2023/09/10 17:26:52;;;;;;;1.52;1.45;;;;;;;;;;7392074;19;20484;-89
2023/09/10 17:29:18;;;;;;;1.70;1.60;;;;;;;;;;7389388;19;20361;-89
2023/09/10 17:31:45;;;;;;;3.15;2.67;;;;;;;;;;7388042;19;20645;-90
2023/09/10 17:34:13;;;;;;;2.50;1.98;;;;;;;;;;7389330;19;20353;-90
2023/09/10 17:36:40;;;;;;;1.77;1.67;;;;;;;;;;7391823;19;20770;-90
2023/09/10 17:39:06;;;;;;;2.07;1.87;;;;;;;;;;7390985;19;20419;-90
2023/09/10 17:41:33;;;;;;;1.40;1.30;;;;;;;;;;7392057;19;20374;-90
2023/09/10 17:44:02;;;;;;;1.55;1.45;;;;;;;;;;7389532;19;20341;-90
2023/09/10 17:46:31;;;;;;;1.50;1.40;;;;;;;;;;7385220;19;20365;-89
2023/09/10 17:48:57;;;;;;;3.28;1.85;;;;;;;;;;7387107;19;20691;-89
2023/09/10 17:51:24;;;;;;;1.80;1.70;;;;;;;;;;7390243;19;20425;-89
2023/09/10 17:53:51;;;;;;;1.90;1.40;;;;;;;;;;7385639;19;20373;-90
2023/09/10 17:56:18;;;;;;;1.95;1.75;;;;;;;;;;7387848;19;20365;-89
2023/09/10 17:58:45;;;;;;;1.08;1.08;;;;;;;;;;7387695;19;20360;-90
2023/09/10 18:01:12;;;;;;;1.45;1.35;;;;;;;;;;7389050;19;20423;-89
2023/09/10 18:03:38;;;;;;;1.38;1.27;;;;;;;;;;7387174;19;20371;-90
2023/09/10 18:06:06;;;;;;;1.20;1.10;;;;;;;;;;7383064;19;20674;-89
2023/09/10 18:08:32;;;;;;;0.98;0.98;;;;;;;;;;7391207;19;20340;-91
2023/09/10 18:10:59;;;;;;;1.55;1.45;;;;;;;;;;7393843;19;20360;-88
2023/09/10 18:13:26;;;;;;;1.17;1.17;;;;;;;;;;7392145;19;20408;-88
2023/09/10 18:15:52;;;;;;;0.77;0.77;;;;;;;;;;7394133;19;20384;-88
2023/09/10 18:18:28;;;;;;;0.95;0.95;;;;;;;;;;7394704;19;20349;-88
2023/09/10 18:20:54;;;;;;;1.15;1.15;;;;;;;;;;7393326;19;20353;-88
2023/09/10 18:23:22;;;;;;;1.90;1.20;;;;;;;;;;7395942;19;20360;-88
2023/09/10 18:25:50;;;;;;;1.35;1.25;;;;;;;;;;7396045;19;20758;-88
2023/09/10 18:28:16;;;;;;;2.60;1.40;;;;;;;;;;7394286;19;21019;-89
2023/09/10 18:30:43;;;;;;;1.10;1.10;;;;;;;;;;7389887;19;20359;-90
2023/09/10 18:33:10;;;;;;;1.30;1.20;;;;;;;;;;7386848;19;20664;-89
2023/09/10 18:35:37;;;;;;;1.60;1.50;;;;;;;;;;7390538;19;20364;-90
2023/09/10 18:38:04;;;;;;;0.88;0.88;;;;;;;;;;7390104;19;20436;-90
2023/09/10 18:40:31;;;;;;;1.43;1.33;;;;;;;;;;7390733;19;20356;-90
2023/09/10 18:42:58;;;;;;;1.90;1.40;;;;;;;;;;7386470;19;20720;-90
2023/09/10 18:45:26;;;;;;;0.93;0.93;;;;;;;;;;7388537;19;20352;-91
2023/09/10 18:47:53;;;;;;;;;;;;;;;;;;7391579;19;20543;-90
2023/09/10 18:50:19;;;;;;;;;;;;;;;;;;7393684;19;19923;-91
2023/09/10 18:52:46;;;;;;;;;;;;;;;;;;7419972;19;19911;-92
2023/09/10 18:55:13;;;;;;;;;;;;;;;;;;7422254;19;19918;-92
2023/09/10 18:57:48;;;;;;;;;;;;;;;;;;7426590;19;19922;-91
2023/09/10 19:00:15;;;;;;;;;;;;;;;;;;7424372;19;19915;-90
2023/09/10 19:02:43;;;;;;;;;;;;;;;;;;7404630;19;19922;-89
2023/09/10 19:05:10;;;;;;;;;;;;;;;;;;7398908;19;19915;-90
2023/09/10 19:07:37;;;;;;;;;;;;;;;;;;7399730;19;19922;-89
2023/09/10 19:10:04;;;;;;;;;;;;;;;;;;7397507;19;20341;-90
2023/09/10 19:12:30;;;;;;;;;;;;;;;;;;7396650;19;20340;-91
2023/09/10 19:14:57;;;;;;;;;;;;;;;;;;7398167;19;19923;-90
2023/09/10 19:17:25;;;;;;;;;;;;;;;;;;7395908;19;20332;-90
2023/09/10 19:19:52;;;;;;;;;;;;;;;;;;7397199;19;19919;-90
2023/09/10 19:22:19;;;;;;;;;;;;;;;;;;7397312;19;19935;-90
2023/09/10 19:24:45;;;;;;;;;;;;;;;;;;7397670;19;19935;-90
2023/09/10 19:27:12;;;;;;;;;;;;;;;;;;7397604;19;19932;-90
2023/09/10 19:29:39;;;;;;;;;;;;;;;;;;7397108;19;20261;-90
2023/09/10 19:32:06;;;;;;;;;;;;;;;;;;7396084;19;19923;-90
2023/09/10 19:34:32;;;;;;;;;;;;;;;;;;7395312;19;19921;-90
2023/09/10 19:36:59;;;;;;;;;;;;;;;;;;7395505;19;19944;-90
2023/09/10 19:39:26;;;;;;;;;;;;;;;;;;7393884;19;19919;-91
2023/09/10 19:41:53;;;;;;;;;;;;;;;;;;7397201;19;20328;-90
2023/09/10 19:44:22;;;;;;;;;;;;;;;;;;7399331;19;20002;-90
2023/09/10 19:46:48;;;;;;;;;;;;;;;;;;7397423;19;19959;-90
2023/09/10 19:49:15;;;;;;;;;;;;;;;;;;7397546;19;19919;-90
2023/09/10 19:51:44;;;;;;;;;;;;;;;;;;7398783;19;19926;-91
2023/09/10 19:54:12;;;;;;;;;;;;;;;;;;7399674;19;19951;-88
2023/09/10 19:56:39;;;;;;;;;;;;;;;;;;7412145;19;19939;-89
2023/09/10 19:59:06;;;;;;;;;;;;;;;;;;7411923;19;19954;-89
2023/09/10 20:01:34;;;;;;;;;;;;;;;;;;7412717;19;19925;-89
2023/09/10 20:04:01;;;;;;;;;;;;;;;;;;7413617;19;20284;-89
2023/09/10 20:06:28;;;;;;;;;;;;;;;;;;7412565;19;19951;-88
2023/09/10 20:08:55;;;;;;;;;;;;;;;;;;7411922;19;19926;-89
2023/09/10 20:11:22;;;;;;;;;;;;;;;;;;7412366;19;19919;-88
2023/09/10 20:13:53;;;;;;;;;;;;;;;;;;7411372;19;19938;-89
2023/09/10 20:16:22;;;;;;;;;;;;;;;;;;7410314;19;19922;-90
2023/09/10 20:18:49;;;;;;;;;;;;;;;;;;7412474;19;19939;-89
2023/09/10 20:21:16;;;;;;;;;;;;;;;;;;7411645;19;19977;-88
2023/09/10 20:23:43;;;;;;;;;;;;;;;;;;7412263;19;19943;-89
2023/09/10 20:26:10;;;;;;;;;;;;;;;;;;7412661;19;19925;-89
2023/09/10 20:28:37;;;;;;;;;;;;;;;;;;7412559;19;19943;-89
2023/09/10 20:31:04;;;;;;;;;;;;;;;;;;7411472;19;20515;-89
2023/09/10 20:33:31;;;;;;;;;;;;;;;;;;7411068;19;19925;-89
2023/09/10 20:36:00;;;;;;;;;;;;;;;;;;7411116;19;19918;-89
2023/09/10 20:38:27;;;;;;;;;;;;;;;;;;7413041;19;19918;-89
2023/09/10 20:40:54;;;;;;;;;;;;;;;;;;7409782;19;19919;-88
2023/09/10 20:43:31;;;;;;;;;;;;;;;;;;7411676;19;19943;-88
2023/09/10 20:45:59;;;;;;;;;;;;;;;;;;7408081;19;19923;-90
2023/09/10 20:48:26;;;;;;;;;;;;;;;;;;7409429;19;19939;-88
2023/09/10 20:50:52;;;;;;;;;;;;;;;;;;7407595;19;19922;-89
2023/09/10 20:53:19;;;;;;;;;;;;;;;;;;7407653;19;19923;-91
2023/09/10 20:55:48;;;;;;;;;;;;;;;;;;7405037;19;20259;-89
2023/09/10 20:58:14;;;;;;;;;;;;;;;;;;7403318;19;19914;-89
2023/09/10 21:00:50;;;;;;;;;;;;;;;;;;7404888;19;19946;-88
2023/09/10 21:03:17;;;;;;;;;;;;;;;;;;7412876;19;19921;-88
2023/09/10 21:05:55;;;;;;;;;;;;;;;;;;7402325;19;19923;-90
2023/09/10 21:08:22;;;;;;;;;;;;;;;;;;7393877;19;19933;-90
2023/09/10 21:10:48;;;;;;;;;;;;;;;;;;7394152;19;19926;-89
2023/09/10 21:13:15;;;;;;;;;;;;;;;;;;7391366;19;20001;-90
2023/09/10 21:15:42;;;;;;;;;;;;;;;;;;7393018;19;19922;-89
2023/09/10 21:18:14;;;;;;;;;;;;;;;;;;7396661;19;19935;-90
2023/09/10 21:20:41;;;;;;;;;;;;;;;;;;7397772;19;19962;-89
2023/09/10 21:23:07;;;;;;;;;;;;;;;;;;7396636;19;19926;-90
2023/09/10 21:25:34;;;;;;;;;;;;;;;;;;7396414;19;20605;-90
2023/09/10 21:28:02;;;;;;;;;;;;;;;;;;7394688;19;19919;-91
2023/09/10 21:30:30;;;;;;;;;;;;;;;;;;7396013;19;19923;-90
2023/09/10 21:32:56;;;;;;;;;;;;;;;;;;7395845;19;19997;-89
2023/09/10 21:35:23;;;;;;;;;;;;;;;;;;7395478;19;20274;-90
2023/09/10 21:37:50;;;;;;;;;;;;;;;;;;7396558;19;19926;-90
2023/09/10 21:40:16;;;;;;;;;;;;;;;;;;7396322;19;19926;-89
2023/09/10 21:42:43;;;;;;;;;;;;;;;;;;7395868;19;19980;-90
2023/09/10 21:45:09;;;;;;;;;;;;;;;;;;7393239;19;19926;-91
2023/09/10 21:47:36;;;;;;;;;;;;;;;;;;7396512;19;19982;-90
2023/09/10 21:50:03;;;;;;;;;;;;;;;;;;7395356;19;19997;-90
2023/09/10 21:52:29;;;;;;;;;;;;;;;;;;7395749;19;19915;-90
2023/09/10 21:55:02;;;;;;;;;;;;;;;;;;7396140;19;19994;-89
2023/09/10 21:57:28;;;;;;;;;;;;;;;;;;7394150;19;20376;-90
2023/09/10 21:59:55;;;;;;;;;;;;;;;;;;7394793;19;19927;-90
2023/09/10 22:02:22;;;;;;;;;;;;;;;;;;7395115;19;19923;-90
2023/09/10 22:04:48;;;;;;;;;;;;;;;;;;7398084;19;20361;-91
2023/09/10 22:07:18;;;;;;;;;;;;;;;;;;7395671;19;20438;-91
2023/09/10 22:09:45;;;;;;;;;;;;;;;;;;7390757;19;19939;-90
2023/09/10 22:12:11;;;;;;;;;;;;;;;;;;7394460;19;19922;-90
2023/09/10 22:14:39;;;;;;;;;;;;;;;;;;7389737;19;20416;-90
2023/09/10 22:17:06;;;;;;;;;;;;;;;;;;7394017;19;19982;-90
2023/09/10 22:19:32;;;;;;;;;;;;;;;;;;7396360;19;20260;-89
2023/09/10 22:21:59;;;;;;;;;;;;;;;;;;7423068;19;19931;-92
2023/09/10 22:24:25;;;;;;;;;;;;;;;;;;7421104;19;19911;-92
2023/09/10 22:26:52;;;;;;;;;;;;;;;;;;7412481;19;19929;-91
2023/09/10 22:29:18;;;;;;;;;;;;;;;;;;7416225;19;19915;-89
2023/09/10 22:31:45;;;;;;;;;;;;;;;;;;7422767;19;19942;-89
2023/09/10 22:34:12;;;;;;;;;;;;;;;;;;7415730;19;19911;-89
2023/09/10 22:36:38;;;;;;;;;;;;;;;;;;7419880;19;19910;-89
2023/09/10 22:39:05;;;;;;;;;;;;;;;;;;7414090;19;19926;-90
2023/09/10 22:41:31;;;;;;;;;;;;;;;;;;7420170;19;19915;-89
2023/09/10 22:43:58;;;;;;;;;;;;;;;;;;7412952;19;19922;-91
2023/09/10 22:46:27;;;;;;;;;;;;;;;;;;7394742;19;19933;-89
2023/09/10 22:48:53;;;;;;;;;;;;;;;;;;7394742;19;19918;-91
2023/09/10 22:51:20;;;;;;;;;;;;;;;;;;7394475;19;19915;-91
2023/09/10 22:53:50;;;;;;;;;;;;;;;;;;7393223;19;19915;-91
2023/09/10 22:56:19;;;;;;;;;;;;;;;;;;7394459;19;20124;-91
2023/09/10 22:58:46;;;;;;;;;;;;;;;;;;7392752;19;19929;-90
2023/09/10 23:01:14;;;;;;;;;;;;;;;;;;7394318;19;19964;-91
2023/09/10 23:03:40;;;;;;;;;;;;;;;;;;7391011;19;20612;-90
2023/09/10 23:06:07;;;;;;;;;;;;;;;;;;7395198;19;19923;-90
2023/09/10 23:08:36;;;;;;;;;;;;;;;;;;7395495;19;20332;-91
2023/09/10 23:11:03;;;;;;;;;;;;;;;;;;7393621;19;19927;-90
2023/09/10 23:13:30;;;;;;;;;;;;;;;;;;7387935;19;19960;-91
2023/09/10 23:15:57;;;;;;;;;;;;;;;;;;7388327;19;20268;-91
2023/09/10 23:18:23;;;;;;;;;;;;;;;;;;7395562;19;20289;-90